CHICAGO O'HARE INTL

KORD (ORD)
Chicago, Illinois
Towered

Vatsim Metar:
KORD 272151Z 31005KT 10SM SCT015 OVC030 01/M02 A2999 RMK AO2 SLP162 T00111017

No ATC Online

Traffic

Inbound:
Ident
Type
Name
ETA
Phase
UAL959
H/B763/L
Bob Klemm KMIA
23:04 Z
Cruse
UAL945
H/B772/L
Liam Duffy KRDU
02:55 Z
Descent
AAL945
H/B77W/L
Emir Gurayman LTBA
05:10 Z
Climb

Outbound:
Ident
Type
Name
Destination
Phase
SWR9
H/A333/B
Mauricio Castillo EDDF
LSZH
Boarding
UPS1535
H/B763/L
Charles Gordon
KSDF
Climb
AFR6737
H/B789/L
Erik Nestorovich KORD
LFPG
Climb